sensor_id;sensor_type;location;lat;lon;timestamp;P1;durP1;ratioP1;P2;durP2;ratioP2
14001;SDS011;7076;51.280;12.584;2023-03-19T00:01:16;14.52;;;8.70;;
14001;SDS011;7076;51.280;12.584;2023-03-19T00:06:19;10.70;;;8.00;;
14001;SDS011;7076;51.280;12.584;2023-03-19T00:11:21;11.90;;;8.15;;
14001;SDS011;7076;51.280;12.584;2023-03-19T00:16:25;10.95;;;8.40;;
14001;SDS011;7076;51.280;12.584;2023-03-19T00:21:28;11.07;;;7.93;;
14001;SDS011;7076;51.280;12.584;2023-03-19T00:26:31;9.93;;;7.53;;
14001;SDS011;7076;51.280;12.584;2023-03-19T00:31:35;10.15;;;7.55;;
14001;SDS011;7076;51.280;12.584;2023-03-19T00:36:38;12.05;;;7.78;;
14001;SDS011;7076;51.280;12.584;2023-03-19T00:41:41;10.88;;;8.13;;
14001;SDS011;7076;51.280;12.584;2023-03-19T00:46:51;13.02;;;8.93;;
14001;SDS011;7076;51.280;12.584;2023-03-19T00:51:54;11.05;;;7.55;;
14001;SDS011;7076;51.280;12.584;2023-03-19T00:56:57;10.93;;;7.50;;
14001;SDS011;7076;51.280;12.584;2023-03-19T01:02:00;10.18;;;6.85;;
14001;SDS011;7076;51.280;12.584;2023-03-19T01:07:03;12.88;;;7.88;;
14001;SDS011;7076;51.280;12.584;2023-03-19T01:12:07;10.18;;;6.95;;
14001;SDS011;7076;51.280;12.584;2023-03-19T01:17:11;9.98;;;7.80;;
14001;SDS011;7076;51.280;12.584;2023-03-19T01:22:13;10.27;;;7.63;;
14001;SDS011;7076;51.280;12.584;2023-03-19T01:27:21;10.27;;;7.03;;
14001;SDS011;7076;51.280;12.584;2023-03-19T01:32:26;9.48;;;7.05;;
14001;SDS011;7076;51.280;12.584;2023-03-19T01:37:42;11.35;;;7.78;;
14001;SDS011;7076;51.280;12.584;2023-03-19T01:42:52;9.70;;;7.13;;
14001;SDS011;7076;51.280;12.584;2023-03-19T01:48:18;12.05;;;7.75;;
14001;SDS011;7076;51.280;12.584;2023-03-19T01:53:33;10.68;;;7.50;;
14001;SDS011;7076;51.280;12.584;2023-03-19T01:58:49;10.88;;;7.72;;
14001;SDS011;7076;51.280;12.584;2023-03-19T02:04:20;10.00;;;6.30;;
14001;SDS011;7076;51.280;12.584;2023-03-19T02:09:24;9.73;;;6.93;;
14001;SDS011;7076;51.280;12.584;2023-03-19T02:14:28;9.10;;;6.63;;
14001;SDS011;7076;51.280;12.584;2023-03-19T02:19:34;11.18;;;7.53;;
14001;SDS011;7076;51.280;12.584;2023-03-19T02:24:40;10.93;;;7.30;;
14001;SDS011;7076;51.280;12.584;2023-03-19T02:29:51;11.25;;;7.75;;
14001;SDS011;7076;51.280;12.584;2023-03-19T02:34:56;11.65;;;7.00;;
14001;SDS011;7076;51.280;12.584;2023-03-19T02:40:00;8.98;;;7.10;;
14001;SDS011;7076;51.280;12.584;2023-03-19T02:45:06;10.15;;;6.97;;
14001;SDS011;7076;51.280;12.584;2023-03-19T02:50:10;10.02;;;6.80;;
14001;SDS011;7076;51.280;12.584;2023-03-19T02:55:13;10.68;;;7.20;;
14001;SDS011;7076;51.280;12.584;2023-03-19T03:00:20;9.32;;;7.25;;
14001;SDS011;7076;51.280;12.584;2023-03-19T03:05:22;11.02;;;7.28;;
14001;SDS011;7076;51.280;12.584;2023-03-19T03:10:25;9.35;;;7.03;;
14001;SDS011;7076;51.280;12.584;2023-03-19T03:15:30;8.88;;;7.10;;
14001;SDS011;7076;51.280;12.584;2023-03-19T03:20:33;10.15;;;6.72;;
14001;SDS011;7076;51.280;12.584;2023-03-19T03:25:37;8.02;;;6.97;;
14001;SDS011;7076;51.280;12.584;2023-03-19T03:30:41;8.95;;;6.68;;
14001;SDS011;7076;51.280;12.584;2023-03-19T03:35:44;9.32;;;6.80;;
14001;SDS011;7076;51.280;12.584;2023-03-19T03:40:48;7.38;;;5.97;;
14001;SDS011;7076;51.280;12.584;2023-03-19T03:45:52;10.38;;;7.20;;
14001;SDS011;7076;51.280;12.584;2023-03-19T03:50:55;10.23;;;7.13;;
14001;SDS011;7076;51.280;12.584;2023-03-19T03:56:01;10.40;;;7.22;;
14001;SDS011;7076;51.280;12.584;2023-03-19T04:01:06;9.18;;;6.97;;
14001;SDS011;7076;51.280;12.584;2023-03-19T04:06:09;8.75;;;6.78;;
14001;SDS011;7076;51.280;12.584;2023-03-19T04:11:14;8.00;;;6.05;;
14001;SDS011;7076;51.280;12.584;2023-03-19T04:16:18;11.85;;;7.32;;
14001;SDS011;7076;51.280;12.584;2023-03-19T04:21:21;9.90;;;6.78;;
14001;SDS011;7076;51.280;12.584;2023-03-19T04:26:24;8.95;;;6.38;;
14001;SDS011;7076;51.280;12.584;2023-03-19T04:31:28;12.57;;;6.88;;
14001;SDS011;7076;51.280;12.584;2023-03-19T04:36:31;8.30;;;6.03;;
14001;SDS011;7076;51.280;12.584;2023-03-19T04:41:34;10.65;;;6.47;;
14001;SDS011;7076;51.280;12.584;2023-03-19T04:47:04;11.88;;;6.55;;
14001;SDS011;7076;51.280;12.584;2023-03-19T04:52:21;9.90;;;6.85;;
14001;SDS011;7076;51.280;12.584;2023-03-19T04:57:24;9.75;;;6.95;;
14001;SDS011;7076;51.280;12.584;2023-03-19T05:02:30;8.55;;;7.05;;
14001;SDS011;7076;51.280;12.584;2023-03-19T05:07:33;12.32;;;6.53;;
14001;SDS011;7076;51.280;12.584;2023-03-19T05:12:38;10.73;;;6.25;;
14001;SDS011;7076;51.280;12.584;2023-03-19T05:17:43;8.35;;;5.85;;
14001;SDS011;7076;51.280;12.584;2023-03-19T05:22:50;7.80;;;5.70;;
14001;SDS011;7076;51.280;12.584;2023-03-19T05:27:54;6.88;;;6.00;;
14001;SDS011;7076;51.280;12.584;2023-03-19T05:33:00;9.45;;;6.80;;
14001;SDS011;7076;51.280;12.584;2023-03-19T05:38:08;8.10;;;6.03;;
14001;SDS011;7076;51.280;12.584;2023-03-19T05:43:13;8.10;;;5.80;;
14001;SDS011;7076;51.280;12.584;2023-03-19T05:48:18;8.77;;;5.50;;
14001;SDS011;7076;51.280;12.584;2023-03-19T05:53:21;8.38;;;5.97;;
14001;SDS011;7076;51.280;12.584;2023-03-19T05:58:50;9.00;;;6.38;;
14001;SDS011;7076;51.280;12.584;2023-03-19T06:03:59;10.80;;;6.43;;
14001;SDS011;7076;51.280;12.584;2023-03-19T06:09:04;7.55;;;5.97;;
14001;SDS011;7076;51.280;12.584;2023-03-19T06:14:10;8.48;;;5.95;;
14001;SDS011;7076;51.280;12.584;2023-03-19T06:19:18;9.82;;;6.60;;
14001;SDS011;7076;51.280;12.584;2023-03-19T06:24:21;8.15;;;6.05;;
14001;SDS011;7076;51.280;12.584;2023-03-19T06:29:24;8.98;;;6.10;;
14001;SDS011;7076;51.280;12.584;2023-03-19T06:34:35;8.60;;;5.63;;
14001;SDS011;7076;51.280;12.584;2023-03-19T06:39:38;8.52;;;6.30;;
14001;SDS011;7076;51.280;12.584;2023-03-19T06:44:41;10.20;;;6.60;;
14001;SDS011;7076;51.280;12.584;2023-03-19T06:49:45;8.13;;;5.95;;
14001;SDS011;7076;51.280;12.584;2023-03-19T06:54:48;8.40;;;5.90;;
14001;SDS011;7076;51.280;12.584;2023-03-19T06:59:50;9.40;;;6.55;;
14001;SDS011;7076;51.280;12.584;2023-03-19T07:04:54;8.85;;;6.00;;
14001;SDS011;7076;51.280;12.584;2023-03-19T07:09:57;10.00;;;6.82;;
14001;SDS011;7076;51.280;12.584;2023-03-19T07:15:00;7.65;;;5.65;;
14001;SDS011;7076;51.280;12.584;2023-03-19T07:20:04;9.25;;;5.93;;
14001;SDS011;7076;51.280;12.584;2023-03-19T07:25:08;8.20;;;5.72;;
14001;SDS011;7076;51.280;12.584;2023-03-19T07:30:11;10.73;;;6.55;;
14001;SDS011;7076;51.280;12.584;2023-03-19T07:35:16;19.17;;;13.45;;
14001;SDS011;7076;51.280;12.584;2023-03-19T07:40:18;10.80;;;7.78;;
14001;SDS011;7076;51.280;12.584;2023-03-19T07:45:21;9.90;;;6.63;;
14001;SDS011;7076;51.280;12.584;2023-03-19T07:50:25;10.15;;;6.32;;
14001;SDS011;7076;51.280;12.584;2023-03-19T07:55:28;8.30;;;6.32;;
14001;SDS011;7076;51.280;12.584;2023-03-19T08:00:31;9.95;;;6.57;;
14001;SDS011;7076;51.280;12.584;2023-03-19T08:05:35;6.70;;;5.47;;
14001;SDS011;7076;51.280;12.584;2023-03-19T08:10:38;9.88;;;6.60;;
14001;SDS011;7076;51.280;12.584;2023-03-19T08:15:41;10.25;;;6.32;;
14001;SDS011;7076;51.280;12.584;2023-03-19T08:20:45;7.68;;;5.78;;
14001;SDS011;7076;51.280;12.584;2023-03-19T08:25:48;8.73;;;5.72;;
14001;SDS011;7076;51.280;12.584;2023-03-19T08:30:52;10.00;;;5.78;;
14001;SDS011;7076;51.280;12.584;2023-03-19T08:36:03;8.93;;;6.25;;
14001;SDS011;7076;51.280;12.584;2023-03-19T08:41:06;10.02;;;6.63;;
14001;SDS011;7076;51.280;12.584;2023-03-19T08:46:09;9.07;;;5.68;;
14001;SDS011;7076;51.280;12.584;2023-03-19T08:51:13;8.98;;;5.68;;
14001;SDS011;7076;51.280;12.584;2023-03-19T08:56:16;8.85;;;5.65;;
14001;SDS011;7076;51.280;12.584;2023-03-19T09:01:18;7.10;;;5.63;;
14001;SDS011;7076;51.280;12.584;2023-03-19T09:06:22;8.65;;;6.13;;
14001;SDS011;7076;51.280;12.584;2023-03-19T09:11:25;8.32;;;5.80;;
14001;SDS011;7076;51.280;12.584;2023-03-19T09:16:28;9.65;;;6.05;;
14001;SDS011;7076;51.280;12.584;2023-03-19T09:21:32;12.60;;;6.22;;
14001;SDS011;7076;51.280;12.584;2023-03-19T09:26:35;8.55;;;6.30;;
14001;SDS011;7076;51.280;12.584;2023-03-19T09:31:38;10.05;;;6.18;;
14001;SDS011;7076;51.280;12.584;2023-03-19T09:36:43;7.38;;;5.38;;
14001;SDS011;7076;51.280;12.584;2023-03-19T09:41:52;10.23;;;6.82;;
14001;SDS011;7076;51.280;12.584;2023-03-19T09:47:03;10.45;;;6.50;;
14001;SDS011;7076;51.280;12.584;2023-03-19T09:52:15;8.13;;;5.82;;
14001;SDS011;7076;51.280;12.584;2023-03-19T09:57:21;7.68;;;5.00;;
14001;SDS011;7076;51.280;12.584;2023-03-19T10:02:36;7.28;;;5.90;;
14001;SDS011;7076;51.280;12.584;2023-03-19T10:07:48;9.15;;;6.57;;
14001;SDS011;7076;51.280;12.584;2023-03-19T10:12:55;6.45;;;5.32;;
14001;SDS011;7076;51.280;12.584;2023-03-19T10:18:02;9.00;;;6.03;;
14001;SDS011;7076;51.280;12.584;2023-03-19T10:23:13;10.00;;;6.72;;
14001;SDS011;7076;51.280;12.584;2023-03-19T10:28:19;7.18;;;5.53;;
14001;SDS011;7076;51.280;12.584;2023-03-19T10:33:23;10.98;;;6.70;;
14001;SDS011;7076;51.280;12.584;2023-03-19T10:38:28;7.60;;;5.80;;
14001;SDS011;7076;51.280;12.584;2023-03-19T10:43:34;10.13;;;5.82;;
14001;SDS011;7076;51.280;12.584;2023-03-19T10:48:41;10.38;;;6.22;;
14001;SDS011;7076;51.280;12.584;2023-03-19T10:53:46;10.05;;;5.82;;
14001;SDS011;7076;51.280;12.584;2023-03-19T10:58:55;9.77;;;6.32;;
14001;SDS011;7076;51.280;12.584;2023-03-19T11:03:59;8.82;;;5.80;;
14001;SDS011;7076;51.280;12.584;2023-03-19T11:09:11;9.38;;;5.28;;
14001;SDS011;7076;51.280;12.584;2023-03-19T11:14:16;6.43;;;4.53;;
14001;SDS011;7076;51.280;12.584;2023-03-19T11:19:20;10.38;;;4.70;;
14001;SDS011;7076;51.280;12.584;2023-03-19T11:24:24;6.60;;;5.13;;
14001;SDS011;7076;51.280;12.584;2023-03-19T11:29:27;6.28;;;4.53;;
14001;SDS011;7076;51.280;12.584;2023-03-19T11:34:32;6.55;;;4.28;;
14001;SDS011;7076;51.280;12.584;2023-03-19T11:39:39;5.55;;;3.97;;
14001;SDS011;7076;51.280;12.584;2023-03-19T11:44:49;6.95;;;4.82;;
14001;SDS011;7076;51.280;12.584;2023-03-19T11:50:00;5.53;;;4.13;;
14001;SDS011;7076;51.280;12.584;2023-03-19T11:55:15;3.20;;;2.70;;
14001;SDS011;7076;51.280;12.584;2023-03-19T12:00:24;2.67;;;1.60;;
14001;SDS011;7076;51.280;12.584;2023-03-19T12:05:30;3.50;;;2.30;;
14001;SDS011;7076;51.280;12.584;2023-03-19T12:10:43;3.75;;;1.92;;
14001;SDS011;7076;51.280;12.584;2023-03-19T12:15:51;5.15;;;2.25;;
14001;SDS011;7076;51.280;12.584;2023-03-19T12:20:58;2.28;;;2.05;;
14001;SDS011;7076;51.280;12.584;2023-03-19T12:26:04;3.72;;;2.20;;
14001;SDS011;7076;51.280;12.584;2023-03-19T12:31:24;4.47;;;2.55;;
14001;SDS011;7076;51.280;12.584;2023-03-19T12:36:30;2.60;;;2.40;;
14001;SDS011;7076;51.280;12.584;2023-03-19T12:41:38;3.45;;;2.38;;
14001;SDS011;7076;51.280;12.584;2023-03-19T12:46:42;2.78;;;2.40;;
14001;SDS011;7076;51.280;12.584;2023-03-19T12:51:47;2.22;;;2.00;;
14001;SDS011;7076;51.280;12.584;2023-03-19T12:56:55;4.80;;;2.17;;
14001;SDS011;7076;51.280;12.584;2023-03-19T13:02:00;2.22;;;1.90;;
14001;SDS011;7076;51.280;12.584;2023-03-19T13:07:07;3.47;;;1.83;;
14001;SDS011;7076;51.280;12.584;2023-03-19T13:12:14;3.50;;;1.80;;
14001;SDS011;7076;51.280;12.584;2023-03-19T13:17:19;3.40;;;1.58;;
14001;SDS011;7076;51.280;12.584;2023-03-19T13:22:26;1.52;;;1.20;;
14001;SDS011;7076;51.280;12.584;2023-03-19T13:27:31;1.75;;;1.30;;
14001;SDS011;7076;51.280;12.584;2023-03-19T13:32:35;3.40;;;1.58;;
14001;SDS011;7076;51.280;12.584;2023-03-19T13:37:40;2.33;;;1.40;;
14001;SDS011;7076;51.280;12.584;2023-03-19T13:42:44;3.88;;;1.52;;
14001;SDS011;7076;51.280;12.584;2023-03-19T13:47:57;1.60;;;1.50;;
14001;SDS011;7076;51.280;12.584;2023-03-19T13:53:32;2.38;;;1.30;;
14001;SDS011;7076;51.280;12.584;2023-03-19T13:58:48;3.35;;;1.50;;
14001;SDS011;7076;51.280;12.584;2023-03-19T14:03:52;2.63;;;1.65;;
14001;SDS011;7076;51.280;12.584;2023-03-19T14:08:56;2.08;;;1.77;;
14001;SDS011;7076;51.280;12.584;2023-03-19T14:14:02;1.27;;;1.17;;
14001;SDS011;7076;51.280;12.584;2023-03-19T14:19:08;2.30;;;1.30;;
14001;SDS011;7076;51.280;12.584;2023-03-19T14:24:19;2.67;;;1.50;;
14001;SDS011;7076;51.280;12.584;2023-03-19T14:29:44;2.25;;;1.30;;
14001;SDS011;7076;51.280;12.584;2023-03-19T14:34:47;1.75;;;1.33;;
14001;SDS011;7076;51.280;12.584;2023-03-19T14:39:51;3.63;;;2.17;;
14001;SDS011;7076;51.280;12.584;2023-03-19T14:45:07;3.65;;;1.38;;
14001;SDS011;7076;51.280;12.584;2023-03-19T14:55:37;1.98;;;1.27;;
14001;SDS011;7076;51.280;12.584;2023-03-19T15:00:42;2.00;;;1.08;;
14001;SDS011;7076;51.280;12.584;2023-03-19T15:05:45;1.40;;;0.90;;
14001;SDS011;7076;51.280;12.584;2023-03-19T15:10:54;1.30;;;1.10;;
14001;SDS011;7076;51.280;12.584;2023-03-19T15:21:28;1.17;;;0.93;;
14001;SDS011;7076;51.280;12.584;2023-03-19T15:26:32;1.42;;;1.00;;
14001;SDS011;7076;51.280;12.584;2023-03-19T15:31:42;1.23;;;1.10;;
14001;SDS011;7076;51.280;12.584;2023-03-19T15:37:04;3.75;;;1.27;;
14001;SDS011;7076;51.280;12.584;2023-03-19T15:42:08;1.50;;;1.27;;
14001;SDS011;7076;51.280;12.584;2023-03-19T15:47:12;1.20;;;1.00;;
14001;SDS011;7076;51.280;12.584;2023-03-19T15:52:18;1.42;;;1.00;;
14001;SDS011;7076;51.280;12.584;2023-03-19T15:57:21;2.33;;;1.00;;
14001;SDS011;7076;51.280;12.584;2023-03-19T16:02:25;2.17;;;1.17;;
14001;SDS011;7076;51.280;12.584;2023-03-19T16:07:34;2.80;;;1.40;;
14001;SDS011;7076;51.280;12.584;2023-03-19T16:12:41;1.38;;;1.27;;
14001;SDS011;7076;51.280;12.584;2023-03-19T16:17:43;4.45;;;1.98;;
14001;SDS011;7076;51.280;12.584;2023-03-19T16:22:49;3.10;;;1.80;;
14001;SDS011;7076;51.280;12.584;2023-03-19T16:27:53;3.20;;;2.60;;
14001;SDS011;7076;51.280;12.584;2023-03-19T16:32:57;2.17;;;1.25;;
14001;SDS011;7076;51.280;12.584;2023-03-19T16:38:11;1.73;;;1.30;;
14001;SDS011;7076;51.280;12.584;2023-03-19T16:43:15;1.20;;;0.93;;
14001;SDS011;7076;51.280;12.584;2023-03-19T16:48:18;1.88;;;0.82;;
14001;SDS011;7076;51.280;12.584;2023-03-19T16:53:23;0.98;;;0.90;;
14001;SDS011;7076;51.280;12.584;2023-03-19T16:58:27;1.30;;;1.20;;
14001;SDS011;7076;51.280;12.584;2023-03-19T17:03:30;1.10;;;1.00;;
14001;SDS011;7076;51.280;12.584;2023-03-19T17:08:34;2.63;;;1.38;;
14001;SDS011;7076;51.280;12.584;2023-03-19T17:13:37;1.63;;;1.05;;
14001;SDS011;7076;51.280;12.584;2023-03-19T17:18:44;1.60;;;1.13;;
14001;SDS011;7076;51.280;12.584;2023-03-19T17:23:49;3.00;;;1.90;;
14001;SDS011;7076;51.280;12.584;2023-03-19T17:28:52;2.00;;;1.52;;
14001;SDS011;7076;51.280;12.584;2023-03-19T17:33:56;3.47;;;2.40;;
14001;SDS011;7076;51.280;12.584;2023-03-19T17:39:01;2.65;;;1.63;;
14001;SDS011;7076;51.280;12.584;2023-03-19T17:44:03;2.20;;;1.42;;
14001;SDS011;7076;51.280;12.584;2023-03-19T17:49:09;1.92;;;1.30;;
14001;SDS011;7076;51.280;12.584;2023-03-19T17:54:15;2.17;;;1.38;;
14001;SDS011;7076;51.280;12.584;2023-03-19T17:59:18;1.88;;;1.45;;
14001;SDS011;7076;51.280;12.584;2023-03-19T18:04:20;2.05;;;1.35;;
14001;SDS011;7076;51.280;12.584;2023-03-19T18:09:25;1.92;;;1.40;;
14001;SDS011;7076;51.280;12.584;2023-03-19T18:14:28;2.63;;;1.30;;
14001;SDS011;7076;51.280;12.584;2023-03-19T18:19:31;2.17;;;1.40;;
14001;SDS011;7076;51.280;12.584;2023-03-19T18:24:36;1.25;;;1.15;;
14001;SDS011;7076;51.280;12.584;2023-03-19T18:29:38;2.42;;;1.20;;
14001;SDS011;7076;51.280;12.584;2023-03-19T18:34:41;1.45;;;1.35;;
14001;SDS011;7076;51.280;12.584;2023-03-19T18:39:45;1.70;;;1.42;;
14001;SDS011;7076;51.280;12.584;2023-03-19T18:44:48;2.08;;;1.77;;
14001;SDS011;7076;51.280;12.584;2023-03-19T18:49:51;3.15;;;2.55;;
14001;SDS011;7076;51.280;12.584;2023-03-19T18:54:59;3.55;;;2.30;;
14001;SDS011;7076;51.280;12.584;2023-03-19T19:00:01;2.25;;;2.05;;
14001;SDS011;7076;51.280;12.584;2023-03-19T19:05:04;2.60;;;2.00;;
14001;SDS011;7076;51.280;12.584;2023-03-19T19:10:09;4.50;;;2.92;;
14001;SDS011;7076;51.280;12.584;2023-03-19T19:15:17;4.13;;;2.65;;
14001;SDS011;7076;51.280;12.584;2023-03-19T19:20:20;4.07;;;2.55;;
14001;SDS011;7076;51.280;12.584;2023-03-19T19:25:25;3.60;;;2.42;;
14001;SDS011;7076;51.280;12.584;2023-03-19T19:30:29;3.90;;;2.38;;
14001;SDS011;7076;51.280;12.584;2023-03-19T19:35:31;4.35;;;2.55;;
14001;SDS011;7076;51.280;12.584;2023-03-19T19:40:36;2.45;;;2.08;;
14001;SDS011;7076;51.280;12.584;2023-03-19T19:45:38;2.60;;;1.63;;
14001;SDS011;7076;51.280;12.584;2023-03-19T19:50:42;3.38;;;2.25;;
14001;SDS011;7076;51.280;12.584;2023-03-19T19:55:46;3.17;;;2.38;;
14001;SDS011;7076;51.280;12.584;2023-03-19T20:00:49;3.35;;;2.35;;
14001;SDS011;7076;51.280;12.584;2023-03-19T20:06:04;3.55;;;2.20;;
14001;SDS011;7076;51.280;12.584;2023-03-19T20:11:11;3.53;;;2.60;;
14001;SDS011;7076;51.280;12.584;2023-03-19T20:16:15;3.22;;;2.75;;
14001;SDS011;7076;51.280;12.584;2023-03-19T20:21:18;4.68;;;2.50;;
14001;SDS011;7076;51.280;12.584;2023-03-19T20:26:23;7.35;;;2.92;;
14001;SDS011;7076;51.280;12.584;2023-03-19T20:31:27;3.65;;;2.95;;
14001;SDS011;7076;51.280;12.584;2023-03-19T20:36:31;3.30;;;2.72;;
14001;SDS011;7076;51.280;12.584;2023-03-19T20:41:35;3.05;;;2.75;;
14001;SDS011;7076;51.280;12.584;2023-03-19T20:46:38;4.35;;;2.95;;
14001;SDS011;7076;51.280;12.584;2023-03-19T20:51:41;7.05;;;2.95;;
14001;SDS011;7076;51.280;12.584;2023-03-19T20:56:45;4.53;;;2.92;;
14001;SDS011;7076;51.280;12.584;2023-03-19T21:01:48;4.28;;;2.97;;
14001;SDS011;7076;51.280;12.584;2023-03-19T21:06:53;4.60;;;3.45;;
14001;SDS011;7076;51.280;12.584;2023-03-19T21:11:58;4.30;;;2.97;;
14001;SDS011;7076;51.280;12.584;2023-03-19T21:17:00;4.40;;;3.17;;
14001;SDS011;7076;51.280;12.584;2023-03-19T21:22:03;3.70;;;2.88;;
14001;SDS011;7076;51.280;12.584;2023-03-19T21:27:08;4.40;;;2.92;;
14001;SDS011;7076;51.280;12.584;2023-03-19T21:32:15;6.00;;;3.83;;
14001;SDS011;7076;51.280;12.584;2023-03-19T21:37:20;4.45;;;3.55;;
14001;SDS011;7076;51.280;12.584;2023-03-19T21:42:24;4.80;;;3.30;;
14001;SDS011;7076;51.280;12.584;2023-03-19T21:47:26;3.85;;;3.17;;
14001;SDS011;7076;51.280;12.584;2023-03-19T21:52:29;4.35;;;3.03;;
14001;SDS011;7076;51.280;12.584;2023-03-19T21:57:47;3.00;;;2.40;;
14001;SDS011;7076;51.280;12.584;2023-03-19T22:02:50;6.28;;;2.70;;
14001;SDS011;7076;51.280;12.584;2023-03-19T22:07:53;3.90;;;2.83;;
14001;SDS011;7076;51.280;12.584;2023-03-19T22:12:57;3.50;;;2.88;;
14001;SDS011;7076;51.280;12.584;2023-03-19T22:18:00;3.97;;;2.60;;
14001;SDS011;7076;51.280;12.584;2023-03-19T22:23:03;3.00;;;2.30;;
14001;SDS011;7076;51.280;12.584;2023-03-19T22:28:08;5.88;;;2.88;;
14001;SDS011;7076;51.280;12.584;2023-03-19T22:33:15;3.47;;;2.28;;
14001;SDS011;7076;51.280;12.584;2023-03-19T22:38:18;4.57;;;1.95;;
14001;SDS011;7076;51.280;12.584;2023-03-19T22:43:25;2.60;;;2.15;;
14001;SDS011;7076;51.280;12.584;2023-03-19T22:48:29;2.00;;;1.80;;
14001;SDS011;7076;51.280;12.584;2023-03-19T22:53:32;5.03;;;1.90;;
14001;SDS011;7076;51.280;12.584;2023-03-19T22:58:36;3.97;;;1.73;;
14001;SDS011;7076;51.280;12.584;2023-03-19T23:03:39;1.73;;;1.60;;
14001;SDS011;7076;51.280;12.584;2023-03-19T23:08:42;2.90;;;1.60;;
14001;SDS011;7076;51.280;12.584;2023-03-19T23:13:46;1.70;;;1.60;;
14001;SDS011;7076;51.280;12.584;2023-03-19T23:18:48;4.00;;;1.70;;
14001;SDS011;7076;51.280;12.584;2023-03-19T23:23:51;1.90;;;1.60;;
14001;SDS011;7076;51.280;12.584;2023-03-19T23:28:56;1.83;;;1.40;;
14001;SDS011;7076;51.280;12.584;2023-03-19T23:34:00;1.85;;;1.45;;
14001;SDS011;7076;51.280;12.584;2023-03-19T23:39:03;1.73;;;1.60;;
14001;SDS011;7076;51.280;12.584;2023-03-19T23:44:09;1.33;;;1.20;;
14001;SDS011;7076;51.280;12.584;2023-03-19T23:49:13;2.08;;;1.33;;
14001;SDS011;7076;51.280;12.584;2023-03-19T23:59:39;2.90;;;1.50;;
